UAL1633 KDEN-KCLT
Flight info
| Callsign | UAL1633 |
|---|---|
| Flight time | N/A |
| Altitude | 35000 |
| Route | EXTAN7 SHAYK SLN BUM J112 FAM BWG TAZZA FILPZ4 |
| Aircraft | B738/M-SDE2E3FGHIRWXY/LB1 |
Departure
| Time | 2026-05-06 17:56 |
|---|---|
| Airport | Denver International Airport (KDEN) |
Arrival
| Time | N/A |
|---|---|
| Airport | Charlotte Douglas International Airport (KCLT) |
| Time | Latitude | Longitude | Altitude | Speed | Heading |
|---|---|---|---|---|---|
| 2026-05-06 16:46 | 39.85343 | -104.67815 | 5388 ft | 0 kts | 359° |
| 2026-05-06 17:33 | 39.85338 | -104.67815 | 5388 ft | 2 kts | 360° |
| 2026-05-06 17:33 | 39.85323 | -104.67815 | 5388 ft | 2 kts | 359° |
| 2026-05-06 17:34 | 39.85308 | -104.67815 | 5388 ft | 2 kts | 7° |
| 2026-05-06 17:34 | 39.85294 | -104.67822 | 5388 ft | 2 kts | 38° |
| 2026-05-06 17:34 | 39.85284 | -104.67838 | 5388 ft | 2 kts | 64° |
| 2026-05-06 17:34 | 39.85281 | -104.67853 | 5388 ft | 0 kts | 86° |
| 2026-05-06 17:35 | 39.85281 | -104.67862 | 5388 ft | 1 kts | 91° |
| 2026-05-06 17:35 | 39.85281 | -104.67864 | 5388 ft | 0 kts | 90° |
| 2026-05-06 17:37 | 39.85281 | -104.67863 | 5388 ft | 2 kts | 90° |
| 2026-05-06 17:37 | 39.85281 | -104.67784 | 5388 ft | 13 kts | 90° |
| 2026-05-06 17:38 | 39.85280 | -104.67654 | 5388 ft | 14 kts | 90° |
| 2026-05-06 17:38 | 39.85279 | -104.67524 | 5388 ft | 15 kts | 90° |
| 2026-05-06 17:38 | 39.85278 | -104.67382 | 5388 ft | 14 kts | 90° |
| 2026-05-06 17:38 | 39.85276 | -104.67255 | 5388 ft | 13 kts | 90° |
| 2026-05-06 17:39 | 39.85276 | -104.67132 | 5388 ft | 14 kts | 90° |
| 2026-05-06 17:39 | 39.85274 | -104.66990 | 5388 ft | 16 kts | 90° |
| 2026-05-06 17:39 | 39.85274 | -104.66847 | 5388 ft | 14 kts | 90° |
| 2026-05-06 17:39 | 39.85273 | -104.66721 | 5388 ft | 13 kts | 90° |
| 2026-05-06 17:40 | 39.85272 | -104.66608 | 5388 ft | 11 kts | 90° |
| 2026-05-06 17:40 | 39.85290 | -104.66527 | 5391 ft | 8 kts | 76° |
| 2026-05-06 17:40 | 39.85294 | -104.66428 | 5394 ft | 13 kts | 90° |
| 2026-05-06 17:40 | 39.85293 | -104.66301 | 5398 ft | 12 kts | 89° |
| 2026-05-06 17:41 | 39.85343 | -104.66240 | 5398 ft | 11 kts | 2° |
| 2026-05-06 17:41 | 39.85446 | -104.66238 | 5398 ft | 16 kts | 0° |
| 2026-05-06 17:41 | 39.85587 | -104.66236 | 5395 ft | 22 kts | 1° |
| 2026-05-06 17:41 | 39.85741 | -104.66235 | 5394 ft | 21 kts | 0° |
| 2026-05-06 17:42 | 39.85900 | -104.66232 | 5388 ft | 23 kts | 0° |
| 2026-05-06 17:42 | 39.86070 | -104.66231 | 5383 ft | 24 kts | 0° |
| 2026-05-06 17:42 | 39.86236 | -104.66228 | 5385 ft | 22 kts | 0° |
| 2026-05-06 17:42 | 39.86385 | -104.66227 | 5385 ft | 20 kts | 1° |
| 2026-05-06 17:43 | 39.86516 | -104.66225 | 5385 ft | 13 kts | 1° |
| 2026-05-06 17:43 | 39.86581 | -104.66251 | 5385 ft | 8 kts | 296° |
| 2026-05-06 17:43 | 39.86574 | -104.66324 | 5382 ft | 9 kts | 220° |
| 2026-05-06 17:43 | 39.86512 | -104.66357 | 5381 ft | 9 kts | 225° |
| 2026-05-06 17:44 | 39.86500 | -104.66453 | 5378 ft | 11 kts | 272° |
| 2026-05-06 17:44 | 39.86482 | -104.66562 | 5375 ft | 12 kts | 245° |
| 2026-05-06 17:44 | 39.86469 | -104.66665 | 5375 ft | 10 kts | 271° |
| 2026-05-06 17:44 | 39.86477 | -104.66750 | 5375 ft | 8 kts | 306° |
| 2026-05-06 17:45 | 39.86526 | -104.66766 | 5375 ft | 6 kts | 359° |
| 2026-05-06 17:45 | 39.86564 | -104.66766 | 5375 ft | 0 kts | 1° |
| 2026-05-06 17:49 | 39.86567 | -104.66770 | 5375 ft | 0 kts | 296° |
| 2026-05-06 17:50 | 39.86565 | -104.66775 | 5375 ft | 0 kts | 218° |
| 2026-05-06 17:50 | 39.86549 | -104.66775 | 5375 ft | 6 kts | 180° |
| 2026-05-06 17:50 | 39.86478 | -104.66776 | 5375 ft | 11 kts | 181° |
| 2026-05-06 17:50 | 39.86407 | -104.66775 | 5375 ft | 7 kts | 160° |
| 2026-05-06 17:51 | 39.86395 | -104.66731 | 5375 ft | 5 kts | 82° |
| 2026-05-06 17:51 | 39.86405 | -104.66648 | 5375 ft | 12 kts | 81° |
| 2026-05-06 17:51 | 39.86447 | -104.66554 | 5375 ft | 12 kts | 35° |
| 2026-05-06 17:51 | 39.86496 | -104.66466 | 5377 ft | 11 kts | 73° |
| 2026-05-06 17:52 | 39.86501 | -104.66354 | 5381 ft | 14 kts | 90° |
| 2026-05-06 17:52 | 39.86509 | -104.66249 | 5385 ft | 10 kts | 56° |
| 2026-05-06 17:52 | 39.86600 | -104.66225 | 5385 ft | 18 kts | 0° |
| 2026-05-06 17:52 | 39.86757 | -104.66222 | 5377 ft | 25 kts | 0° |
| 2026-05-06 17:53 | 39.86941 | -104.66220 | 5372 ft | 24 kts | 0° |
| 2026-05-06 17:53 | 39.87110 | -104.66218 | 5368 ft | 24 kts | 0° |
| 2026-05-06 17:53 | 39.87280 | -104.66216 | 5362 ft | 25 kts | 0° |
| 2026-05-06 17:53 | 39.87449 | -104.66216 | 5362 ft | 23 kts | 1° |
| 2026-05-06 17:54 | 39.87603 | -104.66212 | 5362 ft | 21 kts | 0° |
| 2026-05-06 17:54 | 39.87721 | -104.66211 | 5362 ft | 9 kts | 4° |
| 2026-05-06 17:54 | 39.87753 | -104.66158 | 5362 ft | 7 kts | 82° |
| 2026-05-06 17:54 | 39.87755 | -104.66093 | 5361 ft | 7 kts | 90° |
| 2026-05-06 17:55 | 39.87754 | -104.65887 | 5358 ft | 51 kts | 90° |
| 2026-05-06 17:55 | 39.87748 | -104.65136 | 5349 ft | 113 kts | 90° |
| 2026-05-06 17:55 | 39.87739 | -104.63876 | 5332 ft | 164 kts | 90° |
| 2026-05-06 17:55 | 39.87728 | -104.62254 | 5544 ft | 189 kts | 88° |
| 2026-05-06 17:56 | 39.87707 | -104.60594 | 6398 ft | 181 kts | 89° |
| 2026-05-06 17:56 | 39.87572 | -104.58901 | 6792 ft | 202 kts | 103° |
| 2026-05-06 17:56 | 39.87024 | -104.57177 | 7254 ft | 212 kts | 113° |
| 2026-05-06 17:56 | 39.86347 | -104.55393 | 7592 ft | 225 kts | 112° |
| 2026-05-06 17:57 | 39.85846 | -104.53396 | 7882 ft | 240 kts | 98° |
| 2026-05-06 17:57 | 39.85598 | -104.51166 | 8221 ft | 257 kts | 95° |
| 2026-05-06 17:57 | 39.85349 | -104.48831 | 8750 ft | 267 kts | 97° |
| 2026-05-06 17:57 | 39.85032 | -104.46420 | 9233 ft | 278 kts | 98° |
| 2026-05-06 17:58 | 39.84676 | -104.43929 | 9842 ft | 284 kts | 100° |
| 2026-05-06 17:58 | 39.84299 | -104.41379 | 10399 ft | 292 kts | 100° |
| 2026-05-06 17:58 | 39.83898 | -104.38741 | 10775 ft | 307 kts | 101° |
| 2026-05-06 17:58 | 39.83477 | -104.35955 | 11115 ft | 323 kts | 100° |
| 2026-05-06 17:59 | 39.83039 | -104.33006 | 11452 ft | 338 kts | 101° |
| 2026-05-06 17:59 | 39.82584 | -104.29951 | 11860 ft | 352 kts | 101° |
| 2026-05-06 17:59 | 39.82102 | -104.26760 | 12321 ft | 364 kts | 101° |
| 2026-05-06 17:59 | 39.81612 | -104.23497 | 12710 ft | 377 kts | 101° |
| 2026-05-06 18:00 | 39.81111 | -104.20097 | 13117 ft | 389 kts | 101° |
| 2026-05-06 18:00 | 39.80590 | -104.16578 | 13556 ft | 399 kts | 100° |
| 2026-05-06 18:00 | 39.80063 | -104.13032 | 14062 ft | 406 kts | 101° |
| 2026-05-06 18:00 | 39.79521 | -104.09417 | 14625 ft | 412 kts | 101° |
| 2026-05-06 18:01 | 39.78963 | -104.05730 | 15195 ft | 417 kts | 101° |
| 2026-05-06 18:01 | 39.78400 | -104.02024 | 15750 ft | 422 kts | 101° |
| 2026-05-06 18:01 | 39.77828 | -103.98271 | 16205 ft | 429 kts | 101° |
| 2026-05-06 18:01 | 39.77242 | -103.94435 | 16732 ft | 434 kts | 101° |
| 2026-05-06 18:02 | 39.76651 | -103.90564 | 17228 ft | 440 kts | 101° |
| 2026-05-06 18:02 | 39.76049 | -103.86619 | 17711 ft | 447 kts | 101° |
| 2026-05-06 18:02 | 39.75446 | -103.82685 | 18220 ft | 453 kts | 101° |
| 2026-05-06 18:02 | 39.74825 | -103.78659 | 18763 ft | 458 kts | 101° |
| 2026-05-06 18:03 | 39.74237 | -103.74597 | 19357 ft | 461 kts | 100° |
| 2026-05-06 18:03 | 39.73780 | -103.70431 | 19949 ft | 465 kts | 97° |
| 2026-05-06 18:03 | 39.73425 | -103.66258 | 20530 ft | 468 kts | 96° |
| 2026-05-06 18:03 | 39.73115 | -103.62038 | 20964 ft | 474 kts | 96° |
| 2026-05-06 18:04 | 39.72819 | -103.57756 | 21519 ft | 478 kts | 96° |
| 2026-05-06 18:04 | 39.72525 | -103.53493 | 22017 ft | 482 kts | 96° |
| 2026-05-06 18:04 | 39.72213 | -103.49135 | 22483 ft | 487 kts | 96° |
| 2026-05-06 18:04 | 39.71891 | -103.44801 | 23027 ft | 489 kts | 97° |
| 2026-05-06 18:05 | 39.71551 | -103.40386 | 23467 ft | 494 kts | 97° |
| 2026-05-06 18:05 | 39.71201 | -103.35950 | 23963 ft | 497 kts | 97° |
| 2026-05-06 18:05 | 39.70839 | -103.31458 | 24408 ft | 501 kts | 98° |
| 2026-05-06 18:05 | 39.70471 | -103.26965 | 24884 ft | 504 kts | 98° |
| 2026-05-06 18:06 | 39.70100 | -103.22444 | 25252 ft | 508 kts | 98° |
| 2026-05-06 18:06 | 39.69718 | -103.17853 | 25675 ft | 512 kts | 98° |
| 2026-05-06 18:06 | 39.69339 | -103.13291 | 26140 ft | 514 kts | 98° |
| 2026-05-06 18:06 | 39.68947 | -103.08633 | 26567 ft | 516 kts | 98° |
| 2026-05-06 18:07 | 39.68559 | -103.04034 | 26973 ft | 519 kts | 98° |
| 2026-05-06 18:07 | 39.68164 | -102.99359 | 27380 ft | 521 kts | 98° |
| 2026-05-06 18:07 | 39.67767 | -102.94681 | 27785 ft | 523 kts | 98° |
| 2026-05-06 18:07 | 39.67370 | -102.90018 | 28192 ft | 524 kts | 98° |
| 2026-05-06 18:08 | 39.66964 | -102.85301 | 28677 ft | 523 kts | 98° |
| 2026-05-06 18:08 | 39.66566 | -102.80684 | 29387 ft | 517 kts | 98° |
| 2026-05-06 18:08 | 39.66171 | -102.76109 | 30280 ft | 506 kts | 98° |
| 2026-05-06 18:08 | 39.65778 | -102.71608 | 30806 ft | 501 kts | 98° |
| 2026-05-06 18:09 | 39.65377 | -102.67052 | 31074 ft | 503 kts | 98° |
| 2026-05-06 18:09 | 39.64981 | -102.62575 | 31312 ft | 505 kts | 98° |
| 2026-05-06 18:09 | 39.64578 | -102.58034 | 31573 ft | 505 kts | 98° |
| 2026-05-06 18:09 | 39.64172 | -102.53476 | 31842 ft | 505 kts | 98° |
| 2026-05-06 18:10 | 39.63757 | -102.48824 | 32078 ft | 507 kts | 98° |
| 2026-05-06 18:10 | 39.63350 | -102.44278 | 32357 ft | 507 kts | 98° |
| 2026-05-06 18:10 | 39.62936 | -102.39668 | 32623 ft | 508 kts | 98° |
| 2026-05-06 18:10 | 39.62523 | -102.35066 | 32862 ft | 509 kts | 98° |
| 2026-05-06 18:11 | 39.62112 | -102.30534 | 33091 ft | 509 kts | 99° |
| 2026-05-06 18:11 | 39.61696 | -102.25954 | 33355 ft | 509 kts | 99° |
| 2026-05-06 18:11 | 39.61284 | -102.21435 | 33606 ft | 509 kts | 99° |
| 2026-05-06 18:11 | 39.60865 | -102.16866 | 33867 ft | 509 kts | 99° |
| 2026-05-06 18:12 | 39.60445 | -102.12290 | 34151 ft | 508 kts | 99° |
| 2026-05-06 18:12 | 39.60025 | -102.07736 | 34422 ft | 508 kts | 99° |
| 2026-05-06 18:12 | 39.59605 | -102.03204 | 34675 ft | 508 kts | 99° |
| 2026-05-06 18:12 | 39.59194 | -101.98731 | 34980 ft | 507 kts | 98° |
| 2026-05-06 18:13 | 39.58804 | -101.94171 | 35248 ft | 506 kts | 98° |
| 2026-05-06 18:13 | 39.58444 | -101.89678 | 35508 ft | 505 kts | 97° |
| 2026-05-06 18:13 | 39.58092 | -101.85126 | 35716 ft | 506 kts | 97° |
| 2026-05-06 18:13 | 39.57742 | -101.80565 | 35936 ft | 506 kts | 97° |
| 2026-05-06 18:14 | 39.57390 | -101.76004 | 36146 ft | 506 kts | 98° |
| 2026-05-06 18:14 | 39.57030 | -101.71398 | 36367 ft | 505 kts | 98° |
| 2026-05-06 18:14 | 39.56667 | -101.66821 | 36539 ft | 506 kts | 98° |
| 2026-05-06 18:14 | 39.56299 | -101.62231 | 36685 ft | 508 kts | 98° |
| 2026-05-06 18:15 | 39.55931 | -101.57686 | 36904 ft | 507 kts | 98° |
| 2026-05-06 18:15 | 39.55558 | -101.53130 | 37098 ft | 506 kts | 98° |
| 2026-05-06 18:15 | 39.54807 | -101.44041 | 37129 ft | 510 kts | 98° |
| 2026-05-06 18:16 | 39.53916 | -101.34985 | 37126 ft | 507 kts | 102° |
| 2026-05-06 18:16 | 39.52596 | -101.25996 | 37138 ft | 507 kts | 105° |
| 2026-05-06 18:17 | 39.51170 | -101.17099 | 37146 ft | 509 kts | 105° |
| 2026-05-06 18:17 | 39.49753 | -101.08145 | 37163 ft | 510 kts | 104° |